Time;durP1;ratioP1;P1;durP2;ratioP2;P2;SDS_P1;SDS_P2;PMS_P1;PMS_P2;Temp;Humidity;BMP_temperature;BMP_pressure;BME280_temperature;BME280_humidity;BME280_pressure;Samples;Min_cycle;Max_cycle;Signal;HPM_P1;HPM_P2
2023/07/03 00:00:12;;;;;;;23.10;5.60;;;;;;;;;;106912;1276;22532;-80
2023/07/03 00:02:58;;;;;;;21.80;5.50;;;;;;;;;;106899;1276;23247;-86
2023/07/03 00:05:25;;;;;;;18.90;6.00;;;;;;;;;;106879;1276;22530;-84
2023/07/03 00:07:51;;;;;;;18.30;5.80;;;;;;;;;;106835;1258;24203;-84
2023/07/03 00:10:21;;;;;;;30.90;6.30;;;;;;;;;;106944;1269;22543;-81
2023/07/03 00:12:47;;;;;;;17.40;6.30;;;;;;;;;;107014;1271;24348;-80
2023/07/03 00:15:13;;;;;;;16.60;5.40;;;;;;;;;;106903;1276;24909;-83
2023/07/03 00:18:00;;;;;;;12.80;5.80;;;;;;;;;;106896;1259;24227;-83
2023/07/03 00:20:27;;;;;;;10.90;5.60;;;;;;;;;;106972;1276;22653;-80
2023/07/03 00:22:54;;;;;;;11.10;4.90;;;;;;;;;;106895;1276;23125;-86
2023/07/03 00:25:28;;;;;;;11.30;5.20;;;;;;;;;;106908;1276;22519;-80
2023/07/03 00:27:57;;;;;;;10.90;4.90;;;;;;;;;;106953;1257;22524;-86
2023/07/03 00:30:23;;;;;;;12.20;5.10;;;;;;;;;;106894;1276;22536;-84
2023/07/03 00:32:49;;;;;;;13.90;4.90;;;;;;;;;;106829;1276;22671;-83
2023/07/03 00:35:15;;;;;;;13.60;5.20;;;;;;;;;;106912;1274;22531;-81
2023/07/03 00:37:42;;;;;;;12.10;4.70;;;;;;;;;;106949;1273;22986;-80
2023/07/03 00:40:10;;;;;;;16.80;5.30;;;;;;;;;;106922;1276;25275;-82
2023/07/03 00:42:37;;;;;;;18.80;5.50;;;;;;;;;;106913;1276;25278;-83
2023/07/03 00:45:08;;;;;;;14.80;5.60;;;;;;;;;;106935;1276;22526;-84
2023/07/03 00:47:37;;;;;;;12.50;4.50;;;;;;;;;;106893;1269;22675;-81
2023/07/03 00:50:06;;;;;;;15.10;5.30;;;;;;;;;;106912;1276;24176;-84
2023/07/03 00:52:32;;;;;;;17.20;5.60;;;;;;;;;;106920;1276;22533;-87
2023/07/03 00:55:13;;;;;;;23.20;5.90;;;;;;;;;;106978;1276;22520;-80
2023/07/03 00:57:49;;;;;;;22.40;6.10;;;;;;;;;;106932;1253;24223;-84
2023/07/03 01:00:16;;;;;;;22.10;5.20;;;;;;;;;;106880;1276;22546;-84
2023/07/03 01:02:48;;;;;;;20.40;5.70;;;;;;;;;;106943;1276;22628;-80
2023/07/03 01:05:17;;;;;;;17.10;5.40;;;;;;;;;;106954;1265;22536;-86
2023/07/03 01:07:43;;;;;;;19.00;6.30;;;;;;;;;;106907;1276;22549;-80
2023/07/03 01:10:15;;;;;;;12.60;5.50;;;;;;;;;;106875;1259;22542;-81
2023/07/03 01:12:45;;;;;;;12.70;5.60;;;;;;;;;;106881;1276;23381;-81
2023/07/03 01:15:17;;;;;;;13.30;5.30;;;;;;;;;;106966;1276;22595;-83
2023/07/03 01:17:44;;;;;;;14.60;5.40;;;;;;;;;;107036;1276;24180;-85
2023/07/03 01:20:23;;;;;;;13.20;5.90;;;;;;;;;;106898;1258;23203;-83
2023/07/03 01:23:01;;;;;;;12.80;5.70;;;;;;;;;;106970;1276;22485;-81
2023/07/03 01:25:28;;;;;;;13.70;5.70;;;;;;;;;;106939;1276;22790;-81
2023/07/03 01:27:55;;;;;;;12.50;6.00;;;;;;;;;;106990;1276;22529;-84
2023/07/03 01:30:32;;;;;;;12.20;6.20;;;;;;;;;;106879;1258;22679;-81
2023/07/03 01:33:18;;;;;;;14.20;5.90;;;;;;;;;;106950;1253;22551;-82
2023/07/03 01:35:50;;;;;;;13.60;5.70;;;;;;;;;;106897;1276;25272;-84
2023/07/03 01:38:19;;;;;;;12.70;5.60;;;;;;;;;;106870;1276;22644;-80
2023/07/03 01:40:46;;;;;;;13.10;5.50;;;;;;;;;;106906;1271;26503;-83
2023/07/03 01:43:15;;;;;;;12.90;6.00;;;;;;;;;;106678;1276;25335;-83
2023/07/03 01:46:02;;;;;;;13.00;5.90;;;;;;;;;;106638;1259;22526;-83
2023/07/03 01:48:30;;;;;;;11.50;5.60;;;;;;;;;;106792;1276;24428;-80
2023/07/03 01:50:56;;;;;;;10.50;5.20;;;;;;;;;;106841;1258;25391;-81
2023/07/03 01:53:35;;;;;;;11.90;5.70;;;;;;;;;;106891;1276;24210;-84
2023/07/03 01:56:03;;;;;;;12.60;5.60;;;;;;;;;;106847;1276;22544;-85
2023/07/03 01:58:29;;;;;;;13.70;5.80;;;;;;;;;;106937;1276;22768;-79
2023/07/03 02:01:04;;;;;;;14.10;5.80;;;;;;;;;;106922;1276;25481;-82
2023/07/03 02:03:47;;;;;;;13.00;6.20;;;;;;;;;;106943;1276;25230;-81
2023/07/03 02:06:38;;;;;;;13.90;5.80;;;;;;;;;;106873;1276;24220;-85
2023/07/03 02:09:15;;;;;;;15.40;6.10;;;;;;;;;;106915;1253;22534;-85
2023/07/03 02:11:47;;;;;;;14.50;6.50;;;;;;;;;;107058;1276;25311;-83
2023/07/03 02:14:19;;;;;;;13.80;6.50;;;;;;;;;;106954;1276;22498;-82
2023/07/03 02:16:47;;;;;;;12.20;6.00;;;;;;;;;;106871;1276;22523;-83
2023/07/03 02:19:15;;;;;;;11.60;5.90;;;;;;;;;;106910;1252;25335;-82
2023/07/03 02:21:43;;;;;;;13.80;5.80;;;;;;;;;;106931;1272;22538;-86
2023/07/03 02:24:19;;;;;;;13.70;6.20;;;;;;;;;;106931;1273;22526;-81
2023/07/03 02:26:50;;;;;;;12.80;5.80;;;;;;;;;;107072;1275;24325;-80
2023/07/03 02:29:17;;;;;;;13.90;6.20;;;;;;;;;;107004;1275;25306;-80
2023/07/03 02:31:44;;;;;;;14.80;6.40;;;;;;;;;;106891;1261;25336;-79
2023/07/03 02:34:24;;;;;;;11.90;5.60;;;;;;;;;;106956;1276;22530;-84
2023/07/03 02:36:50;;;;;;;15.80;5.90;;;;;;;;;;107013;1264;24292;-84
2023/07/03 02:39:37;;;;;;;13.50;6.30;;;;;;;;;;106973;1276;22605;-80
2023/07/03 02:42:03;;;;;;;14.40;6.30;;;;;;;;;;107111;1256;22537;-86
2023/07/03 02:44:29;;;;;;;13.20;6.00;;;;;;;;;;106939;1275;25331;-79
2023/07/03 02:46:55;;;;;;;15.50;6.50;;;;;;;;;;107045;1272;22535;-78
2023/07/03 02:49:26;;;;;;;13.30;6.30;;;;;;;;;;106944;1275;23020;-80
2023/07/03 02:51:58;;;;;;;12.90;6.30;;;;;;;;;;107030;1270;22642;-85
2023/07/03 02:54:25;;;;;;;13.80;6.30;;;;;;;;;;106880;1276;22537;-85
2023/07/03 02:56:51;;;;;;;14.10;6.00;;;;;;;;;;106949;1276;24278;-81
2023/07/03 02:59:17;;;;;;;13.40;6.40;;;;;;;;;;106956;1276;25485;-79
2023/07/03 03:01:43;;;;;;;12.90;6.00;;;;;;;;;;106919;1263;25572;-84
2023/07/03 03:04:16;;;;;;;12.60;6.10;;;;;;;;;;106919;1275;22894;-83
2023/07/03 03:06:44;;;;;;;12.90;6.10;;;;;;;;;;106916;1275;22541;-80
2023/07/03 03:09:10;;;;;;;12.20;6.10;;;;;;;;;;107086;1275;22560;-84
2023/07/03 03:11:37;;;;;;;16.60;6.00;;;;;;;;;;106880;1261;24417;-84
2023/07/03 03:14:04;;;;;;;14.10;6.40;;;;;;;;;;107018;1275;25347;-81
2023/07/03 03:16:30;;;;;;;13.80;6.20;;;;;;;;;;106870;1276;25281;-83
2023/07/03 03:18:57;;;;;;;13.30;6.10;;;;;;;;;;106936;1274;25339;-80
2023/07/03 03:21:23;;;;;;;13.10;6.30;;;;;;;;;;106915;1259;22533;-80
2023/07/03 03:23:49;;;;;;;14.10;6.40;;;;;;;;;;106981;1275;22530;-84
2023/07/03 03:26:16;;;;;;;17.00;6.80;;;;;;;;;;106945;1275;22895;-82
2023/07/03 03:28:42;;;;;;;19.30;7.50;;;;;;;;;;106954;1275;23092;-81
2023/07/03 03:31:08;;;;;;;16.10;6.80;;;;;;;;;;106907;1252;22527;-81
2023/07/03 03:33:37;;;;;;;15.80;6.50;;;;;;;;;;106995;1276;22638;-80
2023/07/03 03:36:04;;;;;;;14.00;6.30;;;;;;;;;;106925;1276;25328;-83
2023/07/03 03:38:30;;;;;;;14.10;6.50;;;;;;;;;;106908;1276;22526;-83
2023/07/03 03:40:58;;;;;;;13.40;6.90;;;;;;;;;;106950;1276;22514;-78
2023/07/03 03:43:27;;;;;;;13.10;6.30;;;;;;;;;;107079;1275;22531;-83
2023/07/03 03:46:00;;;;;;;14.20;6.80;;;;;;;;;;107009;1275;25220;-81
2023/07/03 03:48:35;;;;;;;14.80;6.70;;;;;;;;;;106992;1275;22635;-82
2023/07/03 03:51:02;;;;;;;16.50;6.90;;;;;;;;;;106971;1275;25293;-83
2023/07/03 03:53:29;;;;;;;12.90;6.40;;;;;;;;;;106972;1270;25238;-83
2023/07/03 03:55:55;;;;;;;20.60;7.10;;;;;;;;;;106913;1276;22527;-83
2023/07/03 03:58:24;;;;;;;14.50;6.30;;;;;;;;;;106959;1275;22595;-82
2023/07/03 04:01:00;;;;;;;18.20;6.10;;;;;;;;;;106904;1275;23931;-84
2023/07/03 04:03:27;;;;;;;13.10;6.70;;;;;;;;;;106963;1256;24181;-80
2023/07/03 04:05:53;;;;;;;15.00;7.00;;;;;;;;;;106981;1275;25565;-83
2023/07/03 04:08:19;;;;;;;14.70;6.90;;;;;;;;;;107095;1275;23909;-84
2023/07/03 04:10:45;;;;;;;14.80;6.70;;;;;;;;;;107090;1275;26488;-84
2023/07/03 04:13:12;;;;;;;15.70;6.80;;;;;;;;;;106937;1275;22529;-86
2023/07/03 04:15:51;;;;;;;17.50;7.20;;;;;;;;;;107061;1275;25439;-82
2023/07/03 04:18:21;;;;;;;15.90;7.20;;;;;;;;;;107011;1270;24204;-83
2023/07/03 04:20:48;;;;;;;14.50;6.80;;;;;;;;;;107072;1275;25410;-80
2023/07/03 04:23:15;;;;;;;16.20;6.80;;;;;;;;;;106990;1259;25315;-83
2023/07/03 04:25:44;;;;;;;15.90;6.90;;;;;;;;;;107014;1275;25962;-83
2023/07/03 04:28:15;;;;;;;15.90;7.50;;;;;;;;;;106979;1275;22561;-83
2023/07/03 04:30:50;;;;;;;16.30;7.10;;;;;;;;;;107129;1266;24045;-83
2023/07/03 04:33:17;;;;;;;17.60;7.10;;;;;;;;;;106953;1258;25287;-81
2023/07/03 04:35:44;;;;;;;16.20;7.20;;;;;;;;;;106932;1275;22534;-84
2023/07/03 04:38:10;;;;;;;22.10;7.90;;;;;;;;;;106996;1275;25469;-85
2023/07/03 04:40:37;;;;;;;18.80;6.70;;;;;;;;;;106934;1274;25302;-80
2023/07/03 04:43:06;;;;;;;17.10;6.80;;;;;;;;;;106938;1257;22492;-84
2023/07/03 04:45:36;;;;;;;15.00;6.60;;;;;;;;;;107071;1275;22663;-79
2023/07/03 04:48:03;;;;;;;18.10;7.30;;;;;;;;;;107053;1253;22527;-86
2023/07/03 04:50:29;;;;;;;15.40;7.00;;;;;;;;;;107119;1266;24278;-80
2023/07/03 04:53:01;;;;;;;18.00;7.70;;;;;;;;;;107114;1258;22546;-79
2023/07/03 04:55:29;;;;;;;17.00;7.00;;;;;;;;;;106945;1275;24180;-80
2023/07/03 04:57:55;;;;;;;19.00;7.00;;;;;;;;;;107088;1275;22640;-80
2023/07/03 05:00:21;;;;;;;17.20;7.20;;;;;;;;;;106935;1275;22535;-81
2023/07/03 05:02:51;;;;;;;18.20;7.30;;;;;;;;;;107078;1275;25889;-85
2023/07/03 05:05:21;;;;;;;15.50;7.80;;;;;;;;;;106916;1275;24052;-79
2023/07/03 05:07:57;;;;;;;17.80;7.30;;;;;;;;;;107064;1275;24071;-80
2023/07/03 05:10:24;;;;;;;17.30;7.50;;;;;;;;;;107037;1275;25265;-80
2023/07/03 05:12:50;;;;;;;18.20;8.00;;;;;;;;;;107094;1275;24053;-79
2023/07/03 05:15:17;;;;;;;18.80;7.60;;;;;;;;;;106925;1261;22830;-80
2023/07/03 05:17:47;;;;;;;16.30;7.80;;;;;;;;;;106995;1275;25401;-83
2023/07/03 05:20:15;;;;;;;17.70;7.40;;;;;;;;;;106965;1275;22530;-83
2023/07/03 05:22:42;;;;;;;22.70;7.90;;;;;;;;;;107022;1275;25324;-83
2023/07/03 05:25:09;;;;;;;22.20;7.10;;;;;;;;;;107041;1259;22533;-83
2023/07/03 05:27:35;;;;;;;15.20;6.90;;;;;;;;;;107164;1275;22759;-80
2023/07/03 05:30:03;;;;;;;17.40;7.80;;;;;;;;;;106859;1275;23226;-79
2023/07/03 05:32:29;;;;;;;17.40;7.40;;;;;;;;;;106935;1275;22477;-81
2023/07/03 05:34:55;;;;;;;16.50;7.40;;;;;;;;;;106792;1259;24058;-84
2023/07/03 05:37:22;;;;;;;20.90;8.10;;;;;;;;;;107079;1275;22541;-85
2023/07/03 05:39:49;;;;;;;19.80;7.00;;;;;;;;;;106940;1275;22537;-80
2023/07/03 05:42:16;;;;;;;17.50;7.60;;;;;;;;;;106903;1275;25265;-83
2023/07/03 05:44:42;;;;;;;18.00;7.20;;;;;;;;;;106929;1259;24250;-83
2023/07/03 05:47:09;;;;;;;15.70;7.20;;;;;;;;;;106987;1275;25324;-81
2023/07/03 05:49:38;;;;;;;16.90;8.30;;;;;;;;;;107045;1275;23325;-81
2023/07/03 05:52:12;;;;;;;14.00;6.60;;;;;;;;;;107069;1275;24214;-84
2023/07/03 05:54:48;;;;;;;17.10;7.60;;;;;;;;;;106994;1272;22506;-80
2023/07/03 05:57:14;;;;;;;15.10;6.90;;;;;;;;;;107062;1275;22612;-84
2023/07/03 05:59:43;;;;;;;14.40;6.50;;;;;;;;;;106982;1275;22526;-81
2023/07/03 06:02:10;;;;;;;18.10;7.40;;;;;;;;;;106912;1275;25317;-81
2023/07/03 06:04:36;;;;;;;16.60;7.50;;;;;;;;;;107015;1257;25287;-82
2023/07/03 06:07:03;;;;;;;14.60;7.20;;;;;;;;;;106980;1275;22639;-80
2023/07/03 06:09:30;;;;;;;14.00;6.70;;;;;;;;;;107110;1272;24269;-83
2023/07/03 06:11:56;;;;;;;15.60;7.30;;;;;;;;;;107095;1274;24284;-81
2023/07/03 06:14:23;;;;;;;16.70;6.50;;;;;;;;;;107015;1275;22542;-84
2023/07/03 06:17:02;;;;;;;14.50;6.20;;;;;;;;;;107102;1272;25393;-82
2023/07/03 06:19:34;;;;;;;12.20;6.30;;;;;;;;;;107062;1276;25323;-80
2023/07/03 06:22:00;;;;;;;15.80;6.70;;;;;;;;;;107128;1272;25440;-81
2023/07/03 06:24:43;;;;;;;16.00;6.00;;;;;;;;;;107017;1254;25347;-82
2023/07/03 06:27:11;;;;;;;13.20;6.50;;;;;;;;;;107086;1268;23367;-80
2023/07/03 06:29:38;;;;;;;13.30;5.80;;;;;;;;;;107112;1275;22555;-82
2023/07/03 06:32:08;;;;;;;16.40;7.30;;;;;;;;;;106952;1274;25438;-80
2023/07/03 06:34:34;;;;;;;17.30;6.90;;;;;;;;;;106866;1250;22531;-82
2023/07/03 06:37:02;;;;;;;14.50;5.60;;;;;;;;;;106894;1274;25230;-84
2023/07/03 06:39:29;;;;;;;13.00;5.70;;;;;;;;;;107213;1274;22523;-80
2023/07/03 06:41:55;;;;;;;18.70;6.50;;;;;;;;;;107071;1274;25359;-83
2023/07/03 06:44:21;;;;;;;12.60;5.80;;;;;;;;;;107183;1274;22789;-82
2023/07/03 06:46:56;;;;;;;12.50;5.70;;;;;;;;;;107107;1267;22512;-85
2023/07/03 06:49:25;;;;;;;14.50;5.60;;;;;;;;;;106928;1270;24205;-79
2023/07/03 06:51:51;;;;;;;14.40;6.10;;;;;;;;;;107536;1275;22543;-80
2023/07/03 06:54:18;;;;;;;14.60;6.10;;;;;;;;;;107217;1275;23742;-82
2023/07/03 06:56:52;;;;;;;17.00;6.50;;;;;;;;;;107214;1256;22737;-84
2023/07/03 06:59:18;;;;;;;12.70;5.90;;;;;;;;;;107031;1275;22538;-81
2023/07/03 07:01:44;;;;;;;13.80;6.40;;;;;;;;;;107320;1267;25208;-79
2023/07/03 07:04:10;;;;;;;18.30;6.70;;;;;;;;;;107215;1272;24235;-82
2023/07/03 07:06:38;;;;;;;15.50;6.70;;;;;;;;;;107112;1275;24219;-79
2023/07/03 07:09:04;;;;;;;17.20;6.40;;;;;;;;;;106922;1273;24226;-87
2023/07/03 07:11:32;;;;;;;18.90;7.30;;;;;;;;;;106977;1276;24200;-81
2023/07/03 07:14:00;;;;;;;18.90;7.00;;;;;;;;;;106934;1276;22670;-83
2023/07/03 07:16:28;;;;;;;16.40;7.40;;;;;;;;;;106978;1266;22569;-80
2023/07/03 07:18:55;;;;;;;17.90;7.20;;;;;;;;;;106969;1275;24200;-84
2023/07/03 07:21:21;;;;;;;16.80;7.20;;;;;;;;;;107193;1274;22526;-81
2023/07/03 07:23:52;;;;;;;16.00;7.50;;;;;;;;;;106946;1274;25323;-85
2023/07/03 07:26:24;;;;;;;24.00;7.70;;;;;;;;;;106811;1260;22560;-80
2023/07/03 07:28:53;;;;;;;17.40;6.80;;;;;;;;;;107113;1275;25393;-82
2023/07/03 07:31:21;;;;;;;14.20;6.80;;;;;;;;;;106953;1276;22556;-83
2023/07/03 07:33:50;;;;;;;15.80;6.70;;;;;;;;;;106967;1275;22523;-84
2023/07/03 07:36:24;;;;;;;15.10;6.50;;;;;;;;;;107334;1266;21775;-80
2023/07/03 07:38:54;;;;;;;19.20;7.10;;;;;;;;;;107166;1272;22523;-84
2023/07/03 07:41:20;;;;;;;11.80;6.50;;;;;;;;;;106921;1275;22552;-82
2023/07/03 07:43:48;;;;;;;15.30;6.40;;;;;;;;;;106948;1275;25265;-84
2023/07/03 07:46:14;;;;;;;17.80;7.30;;;;;;;;;;107324;1253;22541;-82
2023/07/03 07:48:40;;;;;;;15.10;6.30;;;;;;;;;;107178;1275;25367;-77
2023/07/03 07:51:08;;;;;;;16.30;7.10;;;;;;;;;;106965;1275;25268;-80
2023/07/03 07:53:34;;;;;;;14.60;6.30;;;;;;;;;;107066;1275;24286;-80
2023/07/03 07:56:03;;;;;;;20.80;7.50;;;;;;;;;;107192;1275;22541;-80
2023/07/03 07:58:29;;;;;;;17.70;6.70;;;;;;;;;;107000;1274;25233;-79
2023/07/03 08:00:58;;;;;;;16.10;6.90;;;;;;;;;;107064;1276;25302;-81
2023/07/03 08:03:27;;;;;;;16.10;6.50;;;;;;;;;;107121;1276;24272;-79
2023/07/03 08:06:00;;;;;;;14.70;6.60;;;;;;;;;;106919;1276;24249;-85
2023/07/03 08:08:27;;;;;;;18.00;6.80;;;;;;;;;;107012;1259;24252;-79
2023/07/03 08:10:57;;;;;;;15.30;6.80;;;;;;;;;;107124;1273;26654;-82
2023/07/03 08:13:23;;;;;;;37.20;8.30;;;;;;;;;;107371;1274;25269;-79
2023/07/03 08:15:51;;;;;;;18.20;7.10;;;;;;;;;;107445;1274;22523;-83
2023/07/03 08:18:37;;;;;;;15.90;7.30;;;;;;;;;;106969;1259;22545;-81
2023/07/03 08:21:03;;;;;;;15.80;7.00;;;;;;;;;;107022;1269;24240;-80
2023/07/03 08:23:30;;;;;;;16.50;7.50;;;;;;;;;;106952;1272;22542;-82
2023/07/03 08:25:58;;;;;;;14.50;6.70;;;;;;;;;;107047;1270;24186;-80
2023/07/03 08:28:28;;;;;;;15.10;6.70;;;;;;;;;;107157;1267;22538;-82
2023/07/03 08:30:54;;;;;;;18.40;7.40;;;;;;;;;;106990;1272;22739;-83
2023/07/03 08:33:20;;;;;;;17.00;7.10;;;;;;;;;;106901;1275;25360;-81
2023/07/03 08:35:46;;;;;;;18.20;7.70;;;;;;;;;;107017;1270;24250;-84
2023/07/03 08:38:13;;;;;;;24.00;7.60;;;;;;;;;;107050;1258;22534;-82
2023/07/03 08:40:40;;;;;;;16.40;7.70;;;;;;;;;;107157;1272;24202;-80
2023/07/03 08:43:11;;;;;;;15.40;6.80;;;;;;;;;;107181;1266;22530;-79
2023/07/03 08:45:40;;;;;;;32.50;8.90;;;;;;;;;;107070;1267;25572;-79
2023/07/03 08:48:16;;;;;;;21.90;8.00;;;;;;;;;;107120;1272;24193;-85
2023/07/03 08:51:00;;;;;;;18.20;7.80;;;;;;;;;;107034;1267;23262;-81
2023/07/03 08:53:29;;;;;;;25.20;7.80;;;;;;;;;;107007;1267;25265;-80
2023/07/03 08:56:19;;;;;;;18.20;7.00;;;;;;;;;;107132;1267;22549;-78
2023/07/03 08:58:46;;;;;;;17.30;6.90;;;;;;;;;;107186;1264;25335;-80
2023/07/03 09:01:22;;;;;;;22.30;6.90;;;;;;;;;;107183;1267;26731;-82
2023/07/03 09:04:01;;;;;;;18.90;7.60;;;;;;;;;;107173;1272;22534;-80
2023/07/03 09:06:34;;;;;;;16.10;7.60;;;;;;;;;;106906;1267;25581;-78
2023/07/03 09:09:01;;;;;;;15.10;6.80;;;;;;;;;;107070;1256;25338;-80
2023/07/03 09:11:30;;;;;;;16.30;7.40;;;;;;;;;;107148;1266;23033;-81
2023/07/03 09:14:09;;;;;;;19.60;7.20;;;;;;;;;;107031;1271;22626;-79
2023/07/03 09:16:46;;;;;;;23.10;8.30;;;;;;;;;;106983;1271;22596;-80
2023/07/03 09:19:17;;;;;;;19.40;7.60;;;;;;;;;;107047;1266;22551;-85
2023/07/03 09:21:46;;;;;;;19.10;8.30;;;;;;;;;;107124;1269;22775;-82
2023/07/03 09:24:27;;;;;;;16.40;7.60;;;;;;;;;;107205;1270;22692;-85
2023/07/03 09:27:04;;;;;;;21.60;7.40;;;;;;;;;;107186;1257;22532;-79
2023/07/03 09:29:31;;;;;;;23.10;8.00;;;;;;;;;;107303;1264;22528;-84
2023/07/03 09:31:57;;;;;;;15.80;7.60;;;;;;;;;;107207;1267;24358;-81
2023/07/03 09:34:24;;;;;;;17.60;7.90;;;;;;;;;;107030;1273;24336;-83
2023/07/03 09:37:10;;;;;;;19.30;8.70;;;;;;;;;;106998;1274;22543;-83
2023/07/03 09:39:37;;;;;;;18.40;8.40;;;;;;;;;;107166;1272;25446;-81
2023/07/03 09:42:07;;;;;;;18.70;9.20;;;;;;;;;;107045;1273;23970;-81
2023/07/03 09:44:41;;;;;;;15.20;7.80;;;;;;;;;;107085;1271;24337;-80
2023/07/03 09:47:28;;;;;;;17.20;8.60;;;;;;;;;;107247;1272;25520;-82
2023/07/03 09:50:02;;;;;;;16.60;7.60;;;;;;;;;;107050;1267;25328;-81
2023/07/03 09:52:40;;;;;;;16.50;8.10;;;;;;;;;;107026;1267;24187;-82
2023/07/03 09:55:06;;;;;;;18.70;8.50;;;;;;;;;;107159;1272;22531;-85
2023/07/03 09:57:33;;;;;;;17.60;8.40;;;;;;;;;;107096;1270;25417;-80
2023/07/03 10:00:14;;;;;;;19.00;7.70;;;;;;;;;;106943;1252;22534;-80
2023/07/03 10:02:46;;;;;;;15.60;8.00;;;;;;;;;;106997;1272;26000;-86
2023/07/03 10:05:19;;;;;;;17.60;7.90;;;;;;;;;;107169;1267;22760;-82
2023/07/03 10:07:46;;;;;;;18.50;7.50;;;;;;;;;;106977;1270;22533;-85
2023/07/03 10:10:28;;;;;;;20.30;7.60;;;;;;;;;;110447;1259;22349;-81
2023/07/03 10:13:18;;;;;;;15.10;7.20;;;;;;;;;;110642;1274;22346;-81
2023/07/03 10:15:47;;;;;;;14.70;7.40;;;;;;;;;;110611;1273;22414;-81
2023/07/03 10:18:19;;;;;;;22.50;8.20;;;;;;;;;;110546;1270;22154;-80
2023/07/03 10:20:55;;;;;;;16.60;7.70;;;;;;;;;;110481;1260;22117;-80
2023/07/03 10:23:32;;;;;;;16.80;7.30;;;;;;;;;;110487;1273;23197;-80
2023/07/03 10:26:04;;;;;;;14.60;7.10;;;;;;;;;;110484;1275;22472;-80
2023/07/03 10:28:52;;;;;;;16.40;7.60;;;;;;;;;;110446;1272;22160;-81
2023/07/03 10:31:50;;;;;;;17.80;7.00;;;;;;;;;;110565;1257;22276;-80
2023/07/03 10:34:19;;;;;;;16.40;7.60;;;;;;;;;;110555;1274;22109;-81
2023/07/03 10:36:56;;;;;;;17.70;7.40;;;;;;;;;;110557;1275;22190;-82
2023/07/03 10:39:28;;;;;;;20.50;7.30;;;;;;;;;;107857;1254;3323788;-82
2023/07/03 10:41:59;;;;;;;17.20;7.40;;;;;;;;;;110532;1270;22423;-79
2023/07/03 10:44:37;;;;;;;18.60;7.80;;;;;;;;;;110542;1270;22136;-82
2023/07/03 10:47:18;;;;;;;17.10;7.70;;;;;;;;;;110500;1275;22120;-82
2023/07/03 10:49:45;;;;;;;17.90;7.90;;;;;;;;;;110488;1251;22415;-79
2023/07/03 10:52:11;;;;;;;16.30;6.70;;;;;;;;;;110539;1272;22174;-79
2023/07/03 10:54:41;;;;;;;16.50;7.90;;;;;;;;;;110485;1274;22868;-82
2023/07/03 10:57:08;;;;;;;15.90;7.70;;;;;;;;;;110392;1269;22132;-79
2023/07/03 10:59:38;;;;;;;18.20;6.90;;;;;;;;;;110552;1275;22832;-82
2023/07/03 11:02:22;;;;;;;18.20;7.50;;;;;;;;;;110385;1261;22231;-81
2023/07/03 11:05:19;;;;;;;19.90;6.60;;;;;;;;;;110575;1276;22136;-80
2023/07/03 11:08:12;;;;;;;17.10;6.40;;;;;;;;;;110335;1275;22442;-81
2023/07/03 11:10:54;;;;;;;21.40;6.90;;;;;;;;;;110101;1263;22284;-80
2023/07/03 11:13:25;;;;;;;13.60;6.10;;;;;;;;;;109979;1282;22145;-80
2023/07/03 11:16:01;;;;;;;13.00;5.50;;;;;;;;;;109985;1281;22182;-81
2023/07/03 11:18:40;;;;;;;16.70;5.70;;;;;;;;;;110072;1281;22238;-81
2023/07/03 11:21:06;;;;;;;13.20;5.90;;;;;;;;;;109993;1267;22144;-82
2023/07/03 11:23:43;;;;;;;16.00;6.10;;;;;;;;;;110007;1282;21997;-83
2023/07/03 11:26:17;;;;;;;15.10;5.70;;;;;;;;;;109951;1283;22269;-81
2023/07/03 11:28:47;;;;;;;18.90;5.50;;;;;;;;;;109963;1283;22173;-81
2023/07/03 11:31:14;;;;;;;15.80;5.40;;;;;;;;;;109976;1264;22157;-82
2023/07/03 11:33:41;;;;;;;15.10;5.50;;;;;;;;;;110069;1281;22829;-81
2023/07/03 11:36:07;;;;;;;14.30;5.60;;;;;;;;;;110053;1281;22194;-81
2023/07/03 11:38:36;;;;;;;15.60;5.90;;;;;;;;;;110062;1281;22913;-81
2023/07/03 11:41:06;;;;;;;13.30;5.30;;;;;;;;;;110136;1263;22799;-77
2023/07/03 11:43:35;;;;;;;14.00;4.90;;;;;;;;;;109936;1283;22154;-81
2023/07/03 11:46:07;;;;;;;14.80;5.90;;;;;;;;;;109968;1282;22039;-80
2023/07/03 11:48:36;;;;;;;15.60;5.60;;;;;;;;;;110329;1276;22143;-82
2023/07/03 11:51:05;;;;;;;14.30;5.20;;;;;;;;;;110391;1254;21802;-82
2023/07/03 11:53:34;;;;;;;14.80;5.00;;;;;;;;;;110458;1275;22929;-82
2023/07/03 11:56:02;;;;;;;14.00;5.20;;;;;;;;;;110353;1275;22165;-81
2023/07/03 11:58:29;;;;;;;13.50;4.50;;;;;;;;;;110411;1275;22087;-80
2023/07/03 12:01:14;;;;;;;13.20;5.70;;;;;;;;;;110463;1253;22445;-81
2023/07/03 12:03:47;;;;;;;13.80;5.10;;;;;;;;;;110635;1276;22112;-81
2023/07/03 12:06:33;;;;;;;14.40;5.30;;;;;;;;;;110410;1276;22136;-81
2023/07/03 12:09:21;;;;;;;15.90;5.00;;;;;;;;;;110425;1276;22118;-82
2023/07/03 12:12:14;;;;;;;14.10;5.50;;;;;;;;;;110611;1254;22474;-81
2023/07/03 12:14:40;;;;;;;15.20;5.60;;;;;;;;;;110365;1275;22168;-78
2023/07/03 12:17:21;;;;;;;13.20;5.90;;;;;;;;;;110556;1275;22832;-81
2023/07/03 12:19:48;;;;;;;17.50;6.20;;;;;;;;;;110473;1275;22416;-82
2023/07/03 12:22:21;;;;;;;13.30;5.50;;;;;;;;;;110418;1257;22113;-80
2023/07/03 12:24:58;;;;;;;13.80;5.50;;;;;;;;;;110423;1276;22138;-81
2023/07/03 12:27:24;;;;;;;14.20;6.20;;;;;;;;;;110251;1276;22123;-81
2023/07/03 12:29:51;;;;;;;13.10;5.50;;;;;;;;;;110148;1276;22261;-81
2023/07/03 12:32:29;;;;;;;16.30;5.40;;;;;;;;;;110307;1257;22147;-80
2023/07/03 12:35:12;;;;;;;15.30;6.00;;;;;;;;;;110404;1275;22606;-82
2023/07/03 12:37:46;;;;;;;16.70;5.90;;;;;;;;;;110478;1275;22160;-80
2023/07/03 12:40:14;;;;;;;14.20;5.90;;;;;;;;;;110458;1275;22161;-80
2023/07/03 12:42:41;;;;;;;15.10;6.60;;;;;;;;;;110437;1257;22848;-82
2023/07/03 12:45:13;;;;;;;15.70;5.50;;;;;;;;;;110410;1270;22104;-80
2023/07/03 12:47:39;;;;;;;13.60;5.90;;;;;;;;;;110244;1276;22544;-81
2023/07/03 12:50:12;;;;;;;15.50;5.90;;;;;;;;;;110520;1276;22210;-81
2023/07/03 12:52:39;;;;;;;13.30;5.40;;;;;;;;;;110457;1260;22241;-81
2023/07/03 12:55:09;;;;;;;16.90;5.70;;;;;;;;;;110574;1275;22341;-79
2023/07/03 12:57:37;;;;;;;16.20;6.40;;;;;;;;;;110425;1276;21983;-81
2023/07/03 13:00:12;;;;;;;14.90;6.10;;;;;;;;;;110446;1275;22776;-80
2023/07/03 13:02:39;;;;;;;12.00;5.70;;;;;;;;;;110396;1257;22130;-81
2023/07/03 13:05:07;;;;;;;12.40;5.80;;;;;;;;;;110250;1273;22868;-81
2023/07/03 13:07:33;;;;;;;14.40;5.80;;;;;;;;;;110504;1276;22125;-82
2023/07/03 13:10:06;;;;;;;12.90;5.60;;;;;;;;;;110438;1270;22814;-81
2023/07/03 13:12:34;;;;;;;13.60;5.80;;;;;;;;;;110426;1254;22604;-80
2023/07/03 13:15:09;;;;;;;15.20;5.50;;;;;;;;;;110447;1276;22131;-81
2023/07/03 13:17:43;;;;;;;17.30;5.90;;;;;;;;;;110487;1270;22138;-81
2023/07/03 13:20:18;;;;;;;14.50;5.80;;;;;;;;;;110241;1273;23106;-80
2023/07/03 13:22:45;;;;;;;15.30;6.20;;;;;;;;;;110347;1256;22151;-81
2023/07/03 13:25:11;;;;;;;14.10;6.20;;;;;;;;;;110438;1276;22144;-79
2023/07/03 13:27:38;;;;;;;13.50;6.50;;;;;;;;;;110323;1276;22365;-81
2023/07/03 13:30:22;;;;;;;14.20;6.10;;;;;;;;;;110340;1276;22146;-82
2023/07/03 13:32:53;;;;;;;19.00;6.40;;;;;;;;;;110511;1254;22168;-80
2023/07/03 13:35:33;;;;;;;15.60;6.30;;;;;;;;;;110532;1273;22725;-79
2023/07/03 13:38:10;;;;;;;14.00;6.00;;;;;;;;;;110457;1262;22113;-81
2023/07/03 13:40:36;;;;;;;16.70;6.20;;;;;;;;;;110455;1275;22121;-80
2023/07/03 13:43:04;;;;;;;13.50;5.70;;;;;;;;;;110542;1253;22187;-80
2023/07/03 13:45:30;;;;;;;12.80;6.50;;;;;;;;;;110258;1276;22141;-81
2023/07/03 13:48:08;;;;;;;15.60;6.40;;;;;;;;;;110223;1276;22150;-78
2023/07/03 13:50:34;;;;;;;13.90;6.30;;;;;;;;;;110374;1278;22137;-81
2023/07/03 13:53:00;;;;;;;14.50;6.70;;;;;;;;;;110147;1267;22856;-81
2023/07/03 13:55:27;;;;;;;17.40;6.40;;;;;;;;;;110318;1260;22120;-80
2023/07/03 13:57:54;;;;;;;13.50;6.40;;;;;;;;;;110301;1277;22141;-80
2023/07/03 14:00:20;;;;;;;17.10;6.00;;;;;;;;;;110462;1277;22208;-80
2023/07/03 14:02:47;;;;;;;15.50;6.50;;;;;;;;;;110488;1277;22168;-76
2023/07/03 14:05:14;;;;;;;16.20;6.40;;;;;;;;;;110246;1257;22891;-79
2023/07/03 14:07:41;;;;;;;15.40;7.10;;;;;;;;;;110364;1278;22193;-80
2023/07/03 14:10:07;;;;;;;13.30;6.00;;;;;;;;;;110205;1278;22395;-78
2023/07/03 14:12:33;;;;;;;19.50;6.20;;;;;;;;;;110195;1278;22152;-80
2023/07/03 14:14:59;;;;;;;15.80;6.60;;;;;;;;;;110431;1256;22117;-79
2023/07/03 14:17:26;;;;;;;13.60;6.50;;;;;;;;;;110336;1277;22775;-79
2023/07/03 14:19:52;;;;;;;15.70;6.60;;;;;;;;;;110468;1273;22373;-79
2023/07/03 14:22:19;;;;;;;15.10;6.70;;;;;;;;;;110438;1277;22185;-78
2023/07/03 14:24:45;;;;;;;15.20;6.10;;;;;;;;;;110375;1259;22083;-79
2023/07/03 14:27:12;;;;;;;18.20;6.60;;;;;;;;;;110373;1262;22112;-78
2023/07/03 14:29:39;;;;;;;14.30;6.00;;;;;;;;;;110201;1279;22110;-79
2023/07/03 14:32:05;;;;;;;13.90;5.90;;;;;;;;;;110178;1278;22440;-81
2023/07/03 14:34:31;;;;;;;15.90;6.80;;;;;;;;;;110455;1257;22907;-80